sensor_id;sensor_type;location;lat;lon;timestamp;temperature;humidity
30063;DHT22;16889;67.864;24.990;2023-05-24T00:04:26;11.20;99.90
30063;DHT22;16889;67.864;24.990;2023-05-24T00:09:14;11.00;99.90
30063;DHT22;16889;67.864;24.990;2023-05-24T00:14:00;11.00;99.90
30063;DHT22;16889;67.864;24.990;2023-05-24T00:18:46;10.90;99.90
30063;DHT22;16889;67.864;24.990;2023-05-24T00:23:32;10.80;99.90
30063;DHT22;16889;67.864;24.990;2023-05-24T00:28:19;10.80;99.90
30063;DHT22;16889;67.864;24.990;2023-05-24T00:33:05;10.80;99.90
30063;DHT22;16889;67.864;24.990;2023-05-24T00:37:51;10.60;99.90
30063;DHT22;16889;67.864;24.990;2023-05-24T00:42:37;10.60;99.90
30063;DHT22;16889;67.864;24.990;2023-05-24T00:47:23;10.50;99.90
30063;DHT22;16889;67.864;24.990;2023-05-24T00:52:09;10.50;99.90
30063;DHT22;16889;67.864;24.990;2023-05-24T00:56:56;10.50;99.90
30063;DHT22;16889;67.864;24.990;2023-05-24T01:01:42;10.70;99.90
30063;DHT22;16889;67.864;24.990;2023-05-24T01:06:41;10.70;99.90
30063;DHT22;16889;67.864;24.990;2023-05-24T01:27:14;10.80;99.90
30063;DHT22;16889;67.864;24.990;2023-05-24T01:32:01;10.70;99.90
30063;DHT22;16889;67.864;24.990;2023-05-24T01:36:47;10.90;99.90
30063;DHT22;16889;67.864;24.990;2023-05-24T01:46:36;10.80;99.90
30063;DHT22;16889;67.864;24.990;2023-05-24T01:51:23;10.80;99.90
30063;DHT22;16889;67.864;24.990;2023-05-24T01:56:12;10.80;99.90
30063;DHT22;16889;67.864;24.990;2023-05-24T02:01:00;10.90;99.90
30063;DHT22;16889;67.864;24.990;2023-05-24T02:05:47;10.80;99.90
30063;DHT22;16889;67.864;24.990;2023-05-24T02:10:33;10.90;99.90
30063;DHT22;16889;67.864;24.990;2023-05-24T02:15:19;10.90;99.90
30063;DHT22;16889;67.864;24.990;2023-05-24T02:20:07;10.90;99.90
30063;DHT22;16889;67.864;24.990;2023-05-24T02:24:53;11.00;99.90
30063;DHT22;16889;67.864;24.990;2023-05-24T02:29:39;11.20;99.90
30063;DHT22;16889;67.864;24.990;2023-05-24T02:34:26;11.20;99.90
30063;DHT22;16889;67.864;24.990;2023-05-24T02:39:12;11.10;99.90
30063;DHT22;16889;67.864;24.990;2023-05-24T02:43:58;11.10;99.90
30063;DHT22;16889;67.864;24.990;2023-05-24T02:48:44;11.20;99.90
30063;DHT22;16889;67.864;24.990;2023-05-24T02:53:31;11.10;99.90
30063;DHT22;16889;67.864;24.990;2023-05-24T02:58:17;11.10;99.90
30063;DHT22;16889;67.864;24.990;2023-05-24T03:03:03;11.20;99.90
30063;DHT22;16889;67.864;24.990;2023-05-24T03:07:49;11.30;99.90
30063;DHT22;16889;67.864;24.990;2023-05-24T03:12:35;11.50;99.90
30063;DHT22;16889;67.864;24.990;2023-05-24T03:17:21;11.40;99.90
30063;DHT22;16889;67.864;24.990;2023-05-24T03:22:07;11.30;99.90
30063;DHT22;16889;67.864;24.990;2023-05-24T03:26:53;11.30;99.90
30063;DHT22;16889;67.864;24.990;2023-05-24T03:31:39;11.30;99.90
30063;DHT22;16889;67.864;24.990;2023-05-24T03:36:25;11.30;99.90
30063;DHT22;16889;67.864;24.990;2023-05-24T03:41:12;11.30;99.90
30063;DHT22;16889;67.864;24.990;2023-05-24T03:45:58;11.30;99.90
30063;DHT22;16889;67.864;24.990;2023-05-24T03:50:44;11.20;99.90
30063;DHT22;16889;67.864;24.990;2023-05-24T03:55:30;11.30;99.90
30063;DHT22;16889;67.864;24.990;2023-05-24T04:00:16;11.40;99.90
30063;DHT22;16889;67.864;24.990;2023-05-24T04:05:03;11.30;99.90
30063;DHT22;16889;67.864;24.990;2023-05-24T04:09:49;11.20;99.90
30063;DHT22;16889;67.864;24.990;2023-05-24T04:14:35;10.90;99.90
30063;DHT22;16889;67.864;24.990;2023-05-24T04:19:22;10.80;99.90
30063;DHT22;16889;67.864;24.990;2023-05-24T04:24:08;10.70;99.90
30063;DHT22;16889;67.864;24.990;2023-05-24T04:28:54;10.90;99.90
30063;DHT22;16889;67.864;24.990;2023-05-24T04:33:40;11.10;99.90
30063;DHT22;16889;67.864;24.990;2023-05-24T04:38:27;12.20;99.90
30063;DHT22;16889;67.864;24.990;2023-05-24T04:43:14;12.80;99.90
30063;DHT22;16889;67.864;24.990;2023-05-24T04:48:00;14.40;99.90
30063;DHT22;16889;67.864;24.990;2023-05-24T04:52:46;15.80;99.90
30063;DHT22;16889;67.864;24.990;2023-05-24T04:57:32;14.70;99.90
30063;DHT22;16889;67.864;24.990;2023-05-24T05:02:17;13.60;99.90
30063;DHT22;16889;67.864;24.990;2023-05-24T05:07:03;12.70;99.90
30063;DHT22;16889;67.864;24.990;2023-05-24T05:11:49;12.80;99.90
30063;DHT22;16889;67.864;24.990;2023-05-24T05:16:36;12.90;99.90
30063;DHT22;16889;67.864;24.990;2023-05-24T05:21:22;13.00;99.90
30063;DHT22;16889;67.864;24.990;2023-05-24T05:26:08;13.00;99.90
30063;DHT22;16889;67.864;24.990;2023-05-24T05:30:54;12.70;99.90
30063;DHT22;16889;67.864;24.990;2023-05-24T05:35:41;12.70;99.90
30063;DHT22;16889;67.864;24.990;2023-05-24T05:40:27;12.50;99.90
30063;DHT22;16889;67.864;24.990;2023-05-24T05:45:13;12.40;99.90
30063;DHT22;16889;67.864;24.990;2023-05-24T05:49:59;12.30;99.90
30063;DHT22;16889;67.864;24.990;2023-05-24T05:54:45;12.50;99.90
30063;DHT22;16889;67.864;24.990;2023-05-24T05:59:31;12.80;99.90
30063;DHT22;16889;67.864;24.990;2023-05-24T06:04:20;12.90;99.90
30063;DHT22;16889;67.864;24.990;2023-05-24T06:09:06;12.80;99.90
30063;DHT22;16889;67.864;24.990;2023-05-24T06:13:53;12.70;99.90
30063;DHT22;16889;67.864;24.990;2023-05-24T06:18:39;12.90;99.90
30063;DHT22;16889;67.864;24.990;2023-05-24T06:23:25;12.90;99.90
30063;DHT22;16889;67.864;24.990;2023-05-24T06:28:11;13.10;99.90
30063;DHT22;16889;67.864;24.990;2023-05-24T06:32:57;13.20;99.90
30063;DHT22;16889;67.864;24.990;2023-05-24T06:37:43;13.30;99.90
30063;DHT22;16889;67.864;24.990;2023-05-24T06:42:29;13.30;99.90
30063;DHT22;16889;67.864;24.990;2023-05-24T06:47:14;13.60;99.90
30063;DHT22;16889;67.864;24.990;2023-05-24T06:52:00;13.80;99.90
30063;DHT22;16889;67.864;24.990;2023-05-24T06:56:46;13.90;99.90
30063;DHT22;16889;67.864;24.990;2023-05-24T07:01:32;14.00;99.90
30063;DHT22;16889;67.864;24.990;2023-05-24T07:06:18;14.50;99.90
30063;DHT22;16889;67.864;24.990;2023-05-24T07:11:04;15.50;99.90
30063;DHT22;16889;67.864;24.990;2023-05-24T07:15:50;16.30;99.90
30063;DHT22;16889;67.864;24.990;2023-05-24T07:20:36;17.40;99.90
30063;DHT22;16889;67.864;24.990;2023-05-24T07:25:22;18.20;99.90
30063;DHT22;16889;67.864;24.990;2023-05-24T07:30:09;18.10;99.90
30063;DHT22;16889;67.864;24.990;2023-05-24T07:34:56;18.30;99.90
30063;DHT22;16889;67.864;24.990;2023-05-24T07:39:43;18.00;99.90
30063;DHT22;16889;67.864;24.990;2023-05-24T07:44:29;18.30;99.90
30063;DHT22;16889;67.864;24.990;2023-05-24T07:49:15;18.50;99.90
30063;DHT22;16889;67.864;24.990;2023-05-24T07:54:01;18.60;99.90
30063;DHT22;16889;67.864;24.990;2023-05-24T07:58:47;18.40;99.90
30063;DHT22;16889;67.864;24.990;2023-05-24T08:03:36;18.60;99.90
30063;DHT22;16889;67.864;24.990;2023-05-24T08:08:22;18.60;99.90
30063;DHT22;16889;67.864;24.990;2023-05-24T08:13:08;19.00;99.90
30063;DHT22;16889;67.864;24.990;2023-05-24T08:17:54;18.30;99.90
30063;DHT22;16889;67.864;24.990;2023-05-24T08:22:41;17.60;99.90
30063;DHT22;16889;67.864;24.990;2023-05-24T08:27:27;16.90;99.90
30063;DHT22;16889;67.864;24.990;2023-05-24T08:32:15;16.60;99.90
30063;DHT22;16889;67.864;24.990;2023-05-24T08:37:01;16.80;99.90
30063;DHT22;16889;67.864;24.990;2023-05-24T08:41:47;17.20;99.90
30063;DHT22;16889;67.864;24.990;2023-05-24T08:46:37;17.90;99.90
30063;DHT22;16889;67.864;24.990;2023-05-24T08:51:23;18.50;99.90
30063;DHT22;16889;67.864;24.990;2023-05-24T08:56:09;18.80;98.50
30063;DHT22;16889;67.864;24.990;2023-05-24T09:00:56;18.80;96.80
30063;DHT22;16889;67.864;24.990;2023-05-24T09:05:43;18.60;97.90
30063;DHT22;16889;67.864;24.990;2023-05-24T09:10:32;18.50;98.10
30063;DHT22;16889;67.864;24.990;2023-05-24T09:15:18;18.70;97.00
30063;DHT22;16889;67.864;24.990;2023-05-24T09:20:05;19.20;96.30
30063;DHT22;16889;67.864;24.990;2023-05-24T09:24:58;19.40;96.10
30063;DHT22;16889;67.864;24.990;2023-05-24T09:29:45;19.10;94.70
30063;DHT22;16889;67.864;24.990;2023-05-24T09:34:43;18.50;94.20
30063;DHT22;16889;67.864;24.990;2023-05-24T09:39:31;18.10;94.70
30063;DHT22;16889;67.864;24.990;2023-05-24T09:44:17;17.90;94.70
30063;DHT22;16889;67.864;24.990;2023-05-24T09:49:03;17.80;94.80
30063;DHT22;16889;67.864;24.990;2023-05-24T09:53:56;17.50;94.40
30063;DHT22;16889;67.864;24.990;2023-05-24T09:58:42;17.70;93.70
30063;DHT22;16889;67.864;24.990;2023-05-24T10:03:29;17.90;93.40
30063;DHT22;16889;67.864;24.990;2023-05-24T10:08:15;18.20;92.50
30063;DHT22;16889;67.864;24.990;2023-05-24T10:13:03;18.20;91.90
30063;DHT22;16889;67.864;24.990;2023-05-24T10:17:50;17.90;88.80
30063;DHT22;16889;67.864;24.990;2023-05-24T10:22:41;17.70;88.30
30063;DHT22;16889;67.864;24.990;2023-05-24T10:27:29;17.60;90.40
30063;DHT22;16889;67.864;24.990;2023-05-24T10:32:18;17.50;87.10
30063;DHT22;16889;67.864;24.990;2023-05-24T10:37:05;17.30;86.80
30063;DHT22;16889;67.864;24.990;2023-05-24T10:41:55;17.20;88.60
30063;DHT22;16889;67.864;24.990;2023-05-24T10:47:01;17.20;90.40
30063;DHT22;16889;67.864;24.990;2023-05-24T10:51:47;17.10;90.00
30063;DHT22;16889;67.864;24.990;2023-05-24T10:56:39;17.10;89.00
30063;DHT22;16889;67.864;24.990;2023-05-24T11:01:27;17.30;85.70
30063;DHT22;16889;67.864;24.990;2023-05-24T11:06:13;17.40;83.00
30063;DHT22;16889;67.864;24.990;2023-05-24T11:11:09;17.20;80.70
30063;DHT22;16889;67.864;24.990;2023-05-24T11:15:56;17.00;79.30
30063;DHT22;16889;67.864;24.990;2023-05-24T11:20:43;16.70;79.40
30063;DHT22;16889;67.864;24.990;2023-05-24T11:25:32;16.50;82.70
30063;DHT22;16889;67.864;24.990;2023-05-24T11:30:23;16.40;80.80
30063;DHT22;16889;67.864;24.990;2023-05-24T11:35:10;16.30;80.00
30063;DHT22;16889;67.864;24.990;2023-05-24T11:39:57;16.40;78.00
30063;DHT22;16889;67.864;24.990;2023-05-24T11:44:43;16.00;71.00
30063;DHT22;16889;67.864;24.990;2023-05-24T11:49:29;15.80;69.10
30063;DHT22;16889;67.864;24.990;2023-05-24T11:54:17;15.70;68.60
30063;DHT22;16889;67.864;24.990;2023-05-24T12:03:57;15.60;65.20
30063;DHT22;16889;67.864;24.990;2023-05-24T12:08:43;15.50;65.00
30063;DHT22;16889;67.864;24.990;2023-05-24T12:13:29;15.40;65.10
30063;DHT22;16889;67.864;24.990;2023-05-24T12:18:19;15.20;67.50
30063;DHT22;16889;67.864;24.990;2023-05-24T12:23:08;14.80;76.40
30063;DHT22;16889;67.864;24.990;2023-05-24T12:27:55;14.00;89.50
30063;DHT22;16889;67.864;24.990;2023-05-24T12:32:41;13.20;94.10
30063;DHT22;16889;67.864;24.990;2023-05-24T12:37:29;12.50;97.90
30063;DHT22;16889;67.864;24.990;2023-05-24T12:42:15;12.10;99.90
30063;DHT22;16889;67.864;24.990;2023-05-24T12:47:05;11.70;99.90
30063;DHT22;16889;67.864;24.990;2023-05-24T12:51:53;11.60;99.90
30063;DHT22;16889;67.864;24.990;2023-05-24T12:56:39;11.50;99.90
30063;DHT22;16889;67.864;24.990;2023-05-24T13:01:26;11.40;99.90
30063;DHT22;16889;67.864;24.990;2023-05-24T13:06:12;11.10;99.90
30063;DHT22;16889;67.864;24.990;2023-05-24T13:10:58;11.10;99.90
30063;DHT22;16889;67.864;24.990;2023-05-24T13:15:44;10.90;99.90
30063;DHT22;16889;67.864;24.990;2023-05-24T13:20:30;10.80;99.90
30063;DHT22;16889;67.864;24.990;2023-05-24T13:25:16;10.70;99.90
30063;DHT22;16889;67.864;24.990;2023-05-24T13:30:02;10.50;99.90
30063;DHT22;16889;67.864;24.990;2023-05-24T13:34:49;10.40;99.90
30063;DHT22;16889;67.864;24.990;2023-05-24T13:39:35;10.30;99.90
30063;DHT22;16889;67.864;24.990;2023-05-24T13:44:21;10.40;99.90
30063;DHT22;16889;67.864;24.990;2023-05-24T13:49:08;10.50;99.90
30063;DHT22;16889;67.864;24.990;2023-05-24T13:53:54;10.70;99.90
30063;DHT22;16889;67.864;24.990;2023-05-24T13:58:41;10.80;99.90
30063;DHT22;16889;67.864;24.990;2023-05-24T14:03:27;11.00;99.90
30063;DHT22;16889;67.864;24.990;2023-05-24T14:08:13;11.10;99.90
30063;DHT22;16889;67.864;24.990;2023-05-24T14:12:59;11.10;99.90
30063;DHT22;16889;67.864;24.990;2023-05-24T14:17:45;11.10;99.90
30063;DHT22;16889;67.864;24.990;2023-05-24T14:22:31;10.80;99.90
30063;DHT22;16889;67.864;24.990;2023-05-24T14:27:17;10.70;99.90
30063;DHT22;16889;67.864;24.990;2023-05-24T14:32:03;10.70;99.90
30063;DHT22;16889;67.864;24.990;2023-05-24T14:36:49;10.50;99.90
30063;DHT22;16889;67.864;24.990;2023-05-24T14:41:35;10.40;99.90
30063;DHT22;16889;67.864;24.990;2023-05-24T14:46:21;10.30;99.90
30063;DHT22;16889;67.864;24.990;2023-05-24T14:51:07;10.30;99.90
30063;DHT22;16889;67.864;24.990;2023-05-24T14:55:53;10.20;99.90
30063;DHT22;16889;67.864;24.990;2023-05-24T15:00:41;10.20;99.90
30063;DHT22;16889;67.864;24.990;2023-05-24T15:05:27;10.20;99.90
30063;DHT22;16889;67.864;24.990;2023-05-24T15:10:13;10.30;99.90
30063;DHT22;16889;67.864;24.990;2023-05-24T15:14:59;10.50;99.90
30063;DHT22;16889;67.864;24.990;2023-05-24T15:19:45;10.80;99.90
30063;DHT22;16889;67.864;24.990;2023-05-24T15:24:31;10.60;99.90
30063;DHT22;16889;67.864;24.990;2023-05-24T15:29:17;10.80;99.90
30063;DHT22;16889;67.864;24.990;2023-05-24T15:34:03;11.00;99.90
30063;DHT22;16889;67.864;24.990;2023-05-24T15:38:50;10.90;99.90
30063;DHT22;16889;67.864;24.990;2023-05-24T15:43:36;10.80;99.90
30063;DHT22;16889;67.864;24.990;2023-05-24T15:48:22;10.70;99.90
30063;DHT22;16889;67.864;24.990;2023-05-24T15:53:07;10.60;99.90
30063;DHT22;16889;67.864;24.990;2023-05-24T15:57:55;10.60;99.90
30063;DHT22;16889;67.864;24.990;2023-05-24T16:02:41;10.60;99.90
30063;DHT22;16889;67.864;24.990;2023-05-24T16:07:27;10.50;99.90
30063;DHT22;16889;67.864;24.990;2023-05-24T16:12:13;10.40;99.90
30063;DHT22;16889;67.864;24.990;2023-05-24T16:16:59;10.40;99.90
30063;DHT22;16889;67.864;24.990;2023-05-24T16:21:46;10.50;99.90
30063;DHT22;16889;67.864;24.990;2023-05-24T16:26:32;10.50;99.90
30063;DHT22;16889;67.864;24.990;2023-05-24T16:31:18;10.50;99.90
30063;DHT22;16889;67.864;24.990;2023-05-24T16:36:04;10.40;99.90
30063;DHT22;16889;67.864;24.990;2023-05-24T16:40:51;10.50;99.90
30063;DHT22;16889;67.864;24.990;2023-05-24T16:45:38;10.50;99.90
30063;DHT22;16889;67.864;24.990;2023-05-24T16:50:24;10.50;99.90
30063;DHT22;16889;67.864;24.990;2023-05-24T16:55:13;10.40;99.90
30063;DHT22;16889;67.864;24.990;2023-05-24T17:00:00;10.40;99.90
30063;DHT22;16889;67.864;24.990;2023-05-24T17:04:48;10.30;99.90
30063;DHT22;16889;67.864;24.990;2023-05-24T17:09:34;10.30;99.90
30063;DHT22;16889;67.864;24.990;2023-05-24T17:14:20;10.30;99.90
30063;DHT22;16889;67.864;24.990;2023-05-24T17:19:06;10.20;99.90
30063;DHT22;16889;67.864;24.990;2023-05-24T17:23:52;10.20;99.90
30063;DHT22;16889;67.864;24.990;2023-05-24T17:28:41;10.30;99.90
30063;DHT22;16889;67.864;24.990;2023-05-24T17:33:29;10.20;99.90
30063;DHT22;16889;67.864;24.990;2023-05-24T17:38:16;10.30;99.90
30063;DHT22;16889;67.864;24.990;2023-05-24T17:43:02;10.30;99.90
30063;DHT22;16889;67.864;24.990;2023-05-24T17:47:48;10.20;99.90
30063;DHT22;16889;67.864;24.990;2023-05-24T17:52:34;10.20;99.90
30063;DHT22;16889;67.864;24.990;2023-05-24T17:57:20;10.10;99.90
30063;DHT22;16889;67.864;24.990;2023-05-24T18:02:06;10.20;99.90
30063;DHT22;16889;67.864;24.990;2023-05-24T18:06:52;10.20;99.90
30063;DHT22;16889;67.864;24.990;2023-05-24T18:11:39;10.20;99.90
30063;DHT22;16889;67.864;24.990;2023-05-24T18:16:25;10.10;99.90
30063;DHT22;16889;67.864;24.990;2023-05-24T18:21:11;10.10;99.90
30063;DHT22;16889;67.864;24.990;2023-05-24T18:25:57;10.10;99.90
30063;DHT22;16889;67.864;24.990;2023-05-24T18:30:43;10.20;99.90
30063;DHT22;16889;67.864;24.990;2023-05-24T18:35:29;10.20;99.90
30063;DHT22;16889;67.864;24.990;2023-05-24T18:40:16;10.20;99.90
30063;DHT22;16889;67.864;24.990;2023-05-24T18:45:02;10.20;99.90
30063;DHT22;16889;67.864;24.990;2023-05-24T18:49:48;10.30;99.90
30063;DHT22;16889;67.864;24.990;2023-05-24T18:54:34;10.30;99.90
30063;DHT22;16889;67.864;24.990;2023-05-24T18:59:21;10.30;99.90
30063;DHT22;16889;67.864;24.990;2023-05-24T19:04:11;10.30;99.90
30063;DHT22;16889;67.864;24.990;2023-05-24T19:08:57;10.30;99.90
30063;DHT22;16889;67.864;24.990;2023-05-24T19:13:44;10.30;99.90
30063;DHT22;16889;67.864;24.990;2023-05-24T19:18:30;10.40;99.90
30063;DHT22;16889;67.864;24.990;2023-05-24T19:23:16;10.30;99.90
30063;DHT22;16889;67.864;24.990;2023-05-24T19:28:02;10.30;99.90
30063;DHT22;16889;67.864;24.990;2023-05-24T19:32:48;10.30;99.90
30063;DHT22;16889;67.864;24.990;2023-05-24T19:37:34;10.30;99.90
30063;DHT22;16889;67.864;24.990;2023-05-24T19:42:20;10.30;99.90
30063;DHT22;16889;67.864;24.990;2023-05-24T19:47:08;10.30;99.90
30063;DHT22;16889;67.864;24.990;2023-05-24T19:51:56;10.20;99.90
30063;DHT22;16889;67.864;24.990;2023-05-24T19:56:42;10.20;99.90
30063;DHT22;16889;67.864;24.990;2023-05-24T20:01:28;10.30;99.90
30063;DHT22;16889;67.864;24.990;2023-05-24T20:06:15;10.20;99.90
30063;DHT22;16889;67.864;24.990;2023-05-24T20:11:01;10.20;99.90
30063;DHT22;16889;67.864;24.990;2023-05-24T20:15:47;10.20;99.90
30063;DHT22;16889;67.864;24.990;2023-05-24T20:20:33;10.10;99.90
30063;DHT22;16889;67.864;24.990;2023-05-24T20:25:19;10.10;99.90
30063;DHT22;16889;67.864;24.990;2023-05-24T20:30:07;10.10;99.90
30063;DHT22;16889;67.864;24.990;2023-05-24T20:34:53;10.10;99.90
30063;DHT22;16889;67.864;24.990;2023-05-24T20:39:39;10.10;99.90
30063;DHT22;16889;67.864;24.990;2023-05-24T20:44:25;10.10;99.90
30063;DHT22;16889;67.864;24.990;2023-05-24T20:49:11;10.10;99.90
30063;DHT22;16889;67.864;24.990;2023-05-24T20:53:57;10.10;99.90
30063;DHT22;16889;67.864;24.990;2023-05-24T20:58:43;10.10;99.90
30063;DHT22;16889;67.864;24.990;2023-05-24T21:03:30;10.10;99.90
30063;DHT22;16889;67.864;24.990;2023-05-24T21:08:16;10.10;99.90
30063;DHT22;16889;67.864;24.990;2023-05-24T21:13:03;10.00;99.90
30063;DHT22;16889;67.864;24.990;2023-05-24T21:17:49;9.90;99.90
30063;DHT22;16889;67.864;24.990;2023-05-24T21:22:35;9.90;99.90
30063;DHT22;16889;67.864;24.990;2023-05-24T21:27:21;9.80;99.90
30063;DHT22;16889;67.864;24.990;2023-05-24T21:32:07;9.80;99.90
30063;DHT22;16889;67.864;24.990;2023-05-24T21:36:53;9.70;99.90
30063;DHT22;16889;67.864;24.990;2023-05-24T21:41:39;9.60;99.90
30063;DHT22;16889;67.864;24.990;2023-05-24T21:46:26;9.60;99.90
30063;DHT22;16889;67.864;24.990;2023-05-24T21:51:14;9.50;99.90
30063;DHT22;16889;67.864;24.990;2023-05-24T21:56:00;9.40;99.90
30063;DHT22;16889;67.864;24.990;2023-05-24T22:00:47;9.40;99.90
30063;DHT22;16889;67.864;24.990;2023-05-24T22:05:33;9.40;99.90
30063;DHT22;16889;67.864;24.990;2023-05-24T22:10:19;9.30;99.90
30063;DHT22;16889;67.864;24.990;2023-05-24T22:15:05;9.20;99.90
30063;DHT22;16889;67.864;24.990;2023-05-24T22:19:51;9.10;99.90
30063;DHT22;16889;67.864;24.990;2023-05-24T22:24:37;9.10;99.90
30063;DHT22;16889;67.864;24.990;2023-05-24T22:29:23;9.00;99.90
30063;DHT22;16889;67.864;24.990;2023-05-24T22:34:10;8.90;99.90
30063;DHT22;16889;67.864;24.990;2023-05-24T22:38:56;8.90;99.90
30063;DHT22;16889;67.864;24.990;2023-05-24T22:43:42;8.90;99.90
30063;DHT22;16889;67.864;24.990;2023-05-24T22:48:28;9.00;99.90
30063;DHT22;16889;67.864;24.990;2023-05-24T22:53:18;8.90;99.90
30063;DHT22;16889;67.864;24.990;2023-05-24T22:58:03;8.90;99.90
30063;DHT22;16889;67.864;24.990;2023-05-24T23:02:49;8.90;99.90
30063;DHT22;16889;67.864;24.990;2023-05-24T23:07:35;9.00;99.90
30063;DHT22;16889;67.864;24.990;2023-05-24T23:12:22;9.00;99.90
30063;DHT22;16889;67.864;24.990;2023-05-24T23:17:09;9.00;99.90
30063;DHT22;16889;67.864;24.990;2023-05-24T23:21:57;9.00;99.90
30063;DHT22;16889;67.864;24.990;2023-05-24T23:26:43;9.00;99.90
30063;DHT22;16889;67.864;24.990;2023-05-24T23:31:29;9.10;99.90
30063;DHT22;16889;67.864;24.990;2023-05-24T23:36:15;9.10;99.90
30063;DHT22;16889;67.864;24.990;2023-05-24T23:41:01;9.10;99.90
30063;DHT22;16889;67.864;24.990;2023-05-24T23:45:47;9.00;99.90
30063;DHT22;16889;67.864;24.990;2023-05-24T23:50:33;9.10;99.90
30063;DHT22;16889;67.864;24.990;2023-05-24T23:55:20;9.10;99.90
